ePrivacy and GPDR Cookie Consent by Cookie Consent
EmailTwitter


Surface observations / United Kingdom / EGLL (03772)

Regions: Quebec | Canada | USA | Europe | France | UK | Elsewhere
Station
Display
Info & Location for EGLL (03772) | Help decoding METAR

Weather Conditions observed on 2021/10/19 at 01:50 UTC at LONDON/HEATHROW, UK (EGLL)

Sky conditions: overcast.

Temperature: 17.0 Celsius.

Dewpoint: 16.0 Celsius.

Relative Humidity: 94%

Humidex 22.

Winds: Southwest at 15 km/h or 8 knots.

Mean Sea level Pressure: 101.40 kilopascals.

Horizontal visibility: 6.21 statute miles or 9.94 kilometers.

Height of the Ceiling: 91 metres ( 300 feet ).

Coded METAR:

EGLL 190150Z AUTO 21008KT 9999 OVC003 17/16 Q1014 NOSIG=